createdAt,value
2022-11-14T00:00:58.973Z,6.13
2022-11-14T00:03:46.306Z,6.32
2022-11-14T00:06:35.038Z,5.67
2022-11-14T00:09:26.333Z,6.40
2022-11-14T00:12:13.835Z,6.33
2022-11-14T00:15:00.705Z,5.91
2022-11-14T00:17:47.506Z,6.07
2022-11-14T00:20:34.762Z,6.34
2022-11-14T00:23:23.331Z,6.24
2022-11-14T00:26:10.305Z,6.43
2022-11-14T00:28:57.489Z,6.17
2022-11-14T00:31:44.665Z,6.13
2022-11-14T00:34:31.961Z,6.45
2022-11-14T00:37:19.204Z,6.09
2022-11-14T00:40:08.967Z,6.50
2022-11-14T00:42:56.010Z,6.31
2022-11-14T00:45:44.539Z,6.42
2022-11-14T00:48:31.899Z,6.59
2022-11-14T00:51:19.016Z,6.24
2022-11-14T00:54:06.240Z,6.02
2022-11-14T00:56:54.526Z,6.57
2022-11-14T00:59:41.654Z,5.58
2022-11-14T01:02:28.760Z,5.93
2022-11-14T01:05:15.862Z,5.99
2022-11-14T01:08:02.792Z,5.80
2022-11-14T01:10:52.025Z,5.61
2022-11-14T01:13:41.154Z,5.43
2022-11-14T01:16:28.253Z,5.51
2022-11-14T01:19:15.119Z,5.46
2022-11-14T01:22:06.293Z,5.26
2022-11-14T01:24:55.215Z,5.07
2022-11-14T01:27:42.147Z,4.76
2022-11-14T01:30:30.405Z,5.63
2022-11-14T01:33:17.542Z,5.37
2022-11-14T01:36:04.766Z,5.22
2022-11-14T01:38:53.742Z,5.46
2022-11-14T01:41:41.113Z,5.28
2022-11-14T01:44:46.426Z,5.54
2022-11-14T01:47:34.858Z,5.13
2022-11-14T01:50:21.785Z,5.69
2022-11-14T01:53:08.547Z,5.26
2022-11-14T01:55:57.835Z,5.22
2022-11-14T01:58:48.410Z,5.51
2022-11-14T02:01:38.574Z,5.15
2022-11-14T02:04:29.678Z,4.96
2022-11-14T02:07:16.931Z,4.70
2022-11-14T02:10:09.776Z,5.12
2022-11-14T02:12:56.764Z,4.85
2022-11-14T02:15:44.128Z,4.69
2022-11-14T02:18:31.498Z,5.18
2022-11-14T02:21:20.250Z,5.75
2022-11-14T02:24:10.594Z,5.19
2022-11-14T02:26:57.538Z,5.36
2022-11-14T02:29:44.684Z,5.54
2022-11-14T02:32:45.029Z,4.79
2022-11-14T02:35:38.726Z,5.16
2022-11-14T02:38:27.291Z,4.57
2022-11-14T02:41:14.352Z,4.74
2022-11-14T02:44:01.211Z,4.89
2022-11-14T02:46:48.350Z,4.67
2022-11-14T02:49:35.808Z,5.06
2022-11-14T02:52:22.984Z,4.60
2022-11-14T02:55:11.785Z,4.47
2022-11-14T02:57:58.943Z,4.48
2022-11-14T03:01:13.714Z,4.88
2022-11-14T03:03:53.292Z,4.90
2022-11-14T03:06:40.107Z,4.81
2022-11-14T03:09:27.143Z,4.57
2022-11-14T03:12:18.991Z,5.18
2022-11-14T03:15:07.224Z,4.87
2022-11-14T03:17:54.366Z,4.96
2022-11-14T03:20:41.489Z,4.76
2022-11-14T03:23:28.677Z,4.66
2022-11-14T03:26:16.590Z,4.77
2022-11-14T03:29:04.453Z,5.40
2022-11-14T03:31:51.326Z,5.15
2022-11-14T03:34:38.605Z,4.65
2022-11-14T03:37:25.740Z,4.78
2022-11-14T03:40:13.485Z,4.71
2022-11-14T03:43:00.863Z,4.70
2022-11-14T03:45:50.003Z,4.56
2022-11-14T03:48:37.554Z,4.48
2022-11-14T03:51:24.684Z,4.54
2022-11-14T03:54:11.572Z,5.12
2022-11-14T03:56:58.624Z,5.06
2022-11-14T03:59:45.679Z,5.36
2022-11-14T04:02:34.101Z,5.11
2022-11-14T04:05:21.001Z,4.91
2022-11-14T04:08:08.566Z,5.10
2022-11-14T04:10:55.448Z,5.31
2022-11-14T04:13:42.517Z,4.97
2022-11-14T04:16:29.743Z,4.65
2022-11-14T04:19:17.814Z,5.14
2022-11-14T04:22:04.658Z,4.59
2022-11-14T04:24:51.705Z,4.84
2022-11-14T04:27:38.822Z,5.20
2022-11-14T04:30:25.623Z,5.11
2022-11-14T04:33:13.264Z,5.22
2022-11-14T04:36:01.779Z,4.78
2022-11-14T04:38:48.524Z,4.70
2022-11-14T04:41:35.252Z,5.42
2022-11-14T04:44:22.077Z,4.91
2022-11-14T04:47:08.693Z,4.60
2022-11-14T04:49:55.498Z,4.88
2022-11-14T04:52:43.703Z,5.69
2022-11-14T04:55:30.715Z,5.56
2022-11-14T04:58:17.622Z,5.35
2022-11-14T05:01:09.312Z,5.40
2022-11-14T05:03:57.056Z,4.78
2022-11-14T05:06:44.204Z,5.23
2022-11-14T05:09:32.698Z,5.03
2022-11-14T05:12:20.086Z,4.89
2022-11-14T05:15:08.229Z,4.75
2022-11-14T05:17:55.313Z,4.89
2022-11-14T05:20:42.428Z,4.09
2022-11-14T05:23:29.444Z,3.94
2022-11-14T05:26:19.178Z,4.67
2022-11-14T05:29:05.877Z,4.75
2022-11-14T05:31:53.067Z,4.06
2022-11-14T05:34:39.950Z,4.70
2022-11-14T05:37:27.059Z,4.66
2022-11-14T05:40:13.924Z,4.83
2022-11-14T05:43:02.299Z,4.97
2022-11-14T05:45:49.394Z,4.83
2022-11-14T05:48:36.288Z,5.23
2022-11-14T05:51:23.036Z,5.13
2022-11-14T05:54:09.951Z,4.94
2022-11-14T05:56:56.807Z,5.01
2022-11-14T05:59:45.528Z,4.41
2022-11-14T06:02:32.773Z,5.30
2022-11-14T06:05:20.233Z,5.11
2022-11-14T06:08:06.772Z,5.39
2022-11-14T06:10:53.949Z,5.24
2022-11-14T06:13:41.096Z,5.11
2022-11-14T06:16:29.460Z,5.03
2022-11-14T06:19:16.340Z,5.53
2022-11-14T06:22:03.353Z,4.52
2022-11-14T06:24:50.125Z,5.17
2022-11-14T06:27:37.056Z,5.19
2022-11-14T06:30:24.041Z,5.52
2022-11-14T06:33:12.166Z,5.44
2022-11-14T06:36:00.192Z,5.57
2022-11-14T06:38:47.479Z,5.64
2022-11-14T06:41:35.654Z,5.50
2022-11-14T06:44:27.843Z,5.45
2022-11-14T06:47:17.313Z,5.49
2022-11-14T06:50:06.580Z,5.24
2022-11-14T06:52:53.918Z,5.42
2022-11-14T06:55:40.643Z,4.79
2022-11-14T06:58:28.969Z,4.91
2022-11-14T07:01:17.873Z,5.02
2022-11-14T07:04:04.966Z,4.59
2022-11-14T07:06:53.812Z,4.47
2022-11-14T07:09:40.950Z,4.20
2022-11-14T07:12:29.560Z,3.75
2022-11-14T07:15:16.617Z,4.16
2022-11-14T07:18:03.721Z,4.80
2022-11-14T07:20:51.002Z,5.08
2022-11-14T07:23:39.455Z,4.84
2022-11-14T07:26:26.950Z,4.09
2022-11-14T07:29:13.332Z,4.37
2022-11-14T07:32:00.383Z,3.89
2022-11-14T07:34:47.686Z,4.19
2022-11-14T07:37:35.061Z,4.36
2022-11-14T07:40:23.531Z,4.54
2022-11-14T07:43:10.312Z,4.06
2022-11-14T07:46:00.637Z,5.07
2022-11-14T07:48:47.289Z,5.07
2022-11-14T07:51:34.771Z,4.55
2022-11-14T07:54:21.521Z,5.05
2022-11-14T07:57:09.709Z,4.57
2022-11-14T07:59:56.690Z,4.57
2022-11-14T08:02:43.527Z,3.92
2022-11-14T08:05:30.455Z,4.21
2022-11-14T08:08:17.380Z,3.77
2022-11-14T08:11:04.185Z,4.42
2022-11-14T08:13:52.645Z,4.28
2022-11-14T08:16:39.731Z,4.71
2022-11-14T08:19:26.472Z,4.54
2022-11-14T08:22:13.446Z,4.62
2022-11-14T08:25:00.362Z,4.25
2022-11-14T08:27:47.378Z,4.76
2022-11-14T08:30:36.139Z,4.82
2022-11-14T08:33:23.426Z,4.50
2022-11-14T08:36:11.762Z,4.94
2022-11-14T08:39:01.836Z,5.36
2022-11-14T08:41:49.438Z,5.43
2022-11-14T08:44:36.522Z,5.64
2022-11-14T08:47:25.097Z,4.86
2022-11-14T08:50:11.776Z,5.54
2022-11-14T08:52:58.846Z,5.37
2022-11-14T08:55:46.022Z,5.36
2022-11-14T08:58:33.905Z,4.55
2022-11-14T09:01:20.841Z,4.80
2022-11-14T09:04:09.298Z,4.56
2022-11-14T09:06:56.623Z,3.98
2022-11-14T09:09:44.309Z,4.01
2022-11-14T09:12:31.178Z,4.20
2022-11-14T09:15:17.996Z,4.48
2022-11-14T09:18:05.378Z,4.28
2022-11-14T09:20:53.849Z,3.84
2022-11-14T09:23:40.674Z,4.28
2022-11-14T09:26:27.561Z,4.65
2022-11-14T09:29:14.575Z,5.32
2022-11-14T09:32:01.383Z,5.04
2022-11-14T09:34:48.454Z,5.85
2022-11-14T09:37:36.911Z,6.56
2022-11-14T09:40:24.049Z,6.12
2022-11-14T09:43:21.068Z,5.78
2022-11-14T09:46:17.584Z,6.52
2022-11-14T09:49:04.619Z,5.83
2022-11-14T09:51:55.657Z,6.67
2022-11-14T09:54:48.163Z,6.93
2022-11-14T09:57:35.796Z,5.76
2022-11-14T10:00:24.581Z,5.81
2022-11-14T10:03:17.878Z,6.71
2022-11-14T10:06:15.911Z,6.35
2022-11-14T10:09:30.156Z,6.23
2022-11-14T10:12:23.980Z,6.40
2022-11-14T10:15:16.889Z,5.94
2022-11-14T10:18:22.184Z,5.57
2022-11-14T10:21:20.527Z,5.46
2022-11-14T10:24:18.300Z,5.51
2022-11-14T10:27:07.149Z,5.10
2022-11-14T10:30:05.919Z,6.22
2022-11-14T10:33:03.095Z,6.28
2022-11-14T10:35:54.619Z,6.09
2022-11-14T10:38:45.661Z,6.86
2022-11-14T10:41:56.214Z,5.96
2022-11-14T10:44:43.668Z,6.16
2022-11-14T10:47:37.318Z,5.64
2022-11-14T10:50:25.964Z,5.79
2022-11-14T10:53:20.108Z,5.99
2022-11-14T10:56:07.261Z,5.85
2022-11-14T10:58:54.163Z,5.71
2022-11-14T11:01:43.026Z,5.73
2022-11-14T11:04:33.147Z,6.29
2022-11-14T11:07:40.685Z,4.74
2022-11-14T11:10:45.484Z,5.54
2022-11-14T11:13:34.905Z,4.61
2022-11-14T11:16:24.071Z,5.20
2022-11-14T11:19:24.823Z,4.77
2022-11-14T11:22:29.130Z,4.89
2022-11-14T11:25:25.153Z,4.48
2022-11-14T11:28:14.868Z,5.26
2022-11-14T11:31:02.896Z,5.33
2022-11-14T11:33:50.209Z,4.52
2022-11-14T11:36:42.279Z,5.36
2022-11-14T11:39:31.885Z,5.83
2022-11-14T11:42:23.630Z,6.24
2022-11-14T11:45:17.544Z,6.32
2022-11-14T11:48:11.587Z,5.70
2022-11-14T11:50:58.909Z,5.35
2022-11-14T11:53:58.153Z,5.07
2022-11-14T11:56:48.773Z,5.19
2022-11-14T11:59:39.170Z,4.92
2022-11-14T12:02:27.962Z,4.89
2022-11-14T12:05:16.802Z,5.80
2022-11-14T12:08:07.534Z,5.11
2022-11-14T12:10:55.651Z,4.81
2022-11-14T12:14:04.916Z,4.41
2022-11-14T12:17:06.397Z,4.34
2022-11-14T12:20:14.056Z,4.19
2022-11-14T12:23:28.110Z,4.65
2022-11-14T12:26:26.509Z,5.34
2022-11-14T12:29:32.576Z,4.86
2022-11-14T12:32:31.512Z,4.18
2022-11-14T12:35:22.478Z,3.71
2022-11-14T12:38:17.730Z,3.99
2022-11-14T12:41:04.908Z,4.25
2022-11-14T12:43:52.370Z,4.32
2022-11-14T12:47:14.511Z,4.28
2022-11-14T12:50:30.074Z,3.85
2022-11-14T12:53:39.441Z,4.11
2022-11-14T12:56:55.941Z,4.90
2022-11-14T12:59:54.821Z,4.38
2022-11-14T13:03:06.045Z,4.45
2022-11-14T13:05:58.531Z,4.45
2022-11-14T13:09:03.047Z,5.06
2022-11-14T13:12:07.510Z,3.99
2022-11-14T13:15:13.405Z,5.11
2022-11-14T13:18:28.310Z,3.82
2022-11-14T13:21:44.738Z,3.57
2022-11-14T13:25:02.516Z,3.81
2022-11-14T13:28:07.216Z,3.51
2022-11-14T13:31:18.159Z,4.05
2022-11-14T13:34:20.587Z,4.30
2022-11-14T13:37:20.323Z,3.75
2022-11-14T13:40:13.177Z,4.14
2022-11-14T13:43:09.215Z,3.82
2022-11-14T13:46:03.272Z,3.75
2022-11-14T13:49:05.128Z,4.52
2022-11-14T13:51:54.092Z,4.52
2022-11-14T13:54:49.304Z,4.89
2022-11-14T13:57:45.323Z,4.53
2022-11-14T14:00:49.360Z,4.14
2022-11-14T14:03:43.153Z,3.59
2022-11-14T14:06:40.923Z,3.87
2022-11-14T14:09:34.375Z,3.76
2022-11-14T14:12:42.184Z,3.34
2022-11-14T14:15:32.414Z,3.64
2022-11-14T14:18:22.285Z,4.11
2022-11-14T14:21:17.811Z,3.37
2022-11-14T14:24:12.362Z,4.23
2022-11-14T14:27:05.023Z,3.91
2022-11-14T14:29:59.945Z,3.84
2022-11-14T14:33:12.282Z,3.27
2022-11-14T14:35:59.246Z,3.31
2022-11-14T14:38:46.561Z,4.24
2022-11-14T14:41:34.605Z,3.77
2022-11-14T14:44:25.382Z,4.01
2022-11-14T14:47:32.469Z,3.40
2022-11-14T14:50:21.687Z,3.66
2022-11-14T14:53:18.855Z,3.24
2022-11-14T14:56:08.899Z,3.02
2022-11-14T14:58:56.133Z,3.36
2022-11-14T15:01:42.891Z,3.66
2022-11-14T15:04:31.761Z,3.74
2022-11-14T15:07:21.824Z,3.85
2022-11-14T15:10:09.916Z,4.26
2022-11-14T15:12:57.509Z,3.81
2022-11-14T15:15:45.029Z,4.00
2022-11-14T15:18:33.589Z,4.26
2022-11-14T15:21:28.416Z,4.62
2022-11-14T15:24:17.259Z,4.00
2022-11-14T15:27:05.780Z,4.29
2022-11-14T15:29:54.869Z,4.31
2022-11-14T15:32:49.490Z,4.97
2022-11-14T15:35:38.058Z,4.39
2022-11-14T15:38:43.683Z,4.31
2022-11-14T15:41:31.980Z,3.93
2022-11-14T15:44:32.088Z,4.09
2022-11-14T15:47:23.858Z,3.90
2022-11-14T15:50:27.893Z,4.68
2022-11-14T15:53:24.377Z,4.94
2022-11-14T15:56:14.487Z,4.95
2022-11-14T15:59:02.557Z,4.70
2022-11-14T16:01:52.477Z,4.79
2022-11-14T16:04:46.003Z,3.78
2022-11-14T16:07:34.602Z,3.13
2022-11-14T16:10:25.358Z,3.49
2022-11-14T16:13:13.579Z,3.92
2022-11-14T16:16:00.902Z,3.22
2022-11-14T16:18:48.095Z,3.97
2022-11-14T16:21:35.546Z,3.29
2022-11-14T16:24:24.338Z,4.48
2022-11-14T16:27:11.458Z,3.99
2022-11-14T16:29:59.727Z,3.23
2022-11-14T16:32:47.980Z,3.47
2022-11-14T16:35:34.877Z,3.53
2022-11-14T16:38:22.008Z,3.70
2022-11-14T16:41:09.033Z,3.77
2022-11-14T16:43:56.800Z,3.42
2022-11-14T16:46:45.853Z,3.66
2022-11-14T16:49:32.978Z,4.01
2022-11-14T16:52:20.173Z,3.56
2022-11-14T16:55:08.205Z,3.35
2022-11-14T16:57:55.432Z,3.97
2022-11-14T17:00:43.944Z,4.39
2022-11-14T17:03:34.204Z,3.65
2022-11-14T17:06:21.462Z,3.50
2022-11-14T17:09:08.884Z,3.73
2022-11-14T17:11:55.769Z,4.03
2022-11-14T17:14:42.643Z,3.68
2022-11-14T17:17:29.968Z,3.61
2022-11-14T17:20:18.655Z,3.53
2022-11-14T17:23:05.551Z,3.17
2022-11-14T17:25:53.491Z,3.20
2022-11-14T17:28:43.206Z,3.33
2022-11-14T17:31:35.038Z,3.33
2022-11-14T17:34:24.773Z,3.32
2022-11-14T17:37:13.431Z,3.63
2022-11-14T17:40:00.356Z,3.42
2022-11-14T17:42:47.387Z,3.36
2022-11-14T17:45:37.885Z,3.80
2022-11-14T17:48:27.975Z,4.22
2022-11-14T17:51:16.353Z,3.94
2022-11-14T17:54:05.011Z,3.14
2022-11-14T17:56:54.920Z,3.13
2022-11-14T17:59:42.419Z,2.93
2022-11-14T18:02:29.667Z,3.42
2022-11-14T18:05:17.366Z,3.76
2022-11-14T18:08:04.228Z,2.73
2022-11-14T18:10:53.360Z,3.77
2022-11-14T18:13:41.301Z,3.75
2022-11-14T18:16:44.470Z,3.59
2022-11-14T18:19:36.822Z,4.04
2022-11-14T18:22:24.287Z,3.74
2022-11-14T18:25:11.329Z,3.68
2022-11-14T18:27:59.616Z,3.83
2022-11-14T18:30:55.513Z,3.13
2022-11-14T18:33:42.943Z,3.38
2022-11-14T18:36:30.052Z,4.00
2022-11-14T18:39:17.087Z,3.91
2022-11-14T18:42:03.912Z,3.11
2022-11-14T18:44:52.133Z,3.08
2022-11-14T18:47:39.064Z,3.22
2022-11-14T18:50:26.163Z,2.92
2022-11-14T18:53:12.748Z,3.46
2022-11-14T18:55:59.877Z,3.61
2022-11-14T18:58:47.276Z,3.31
2022-11-14T19:01:36.072Z,4.33
2022-11-14T19:04:23.606Z,4.18
2022-11-14T19:07:11.056Z,4.03
2022-11-14T19:09:58.477Z,3.72
2022-11-14T19:12:48.278Z,3.44
2022-11-14T19:15:35.654Z,3.43
2022-11-14T19:18:24.045Z,3.47
2022-11-14T19:21:11.786Z,3.16
2022-11-14T19:23:59.608Z,4.18
2022-11-14T19:26:47.018Z,4.34
2022-11-14T19:29:34.007Z,4.40
2022-11-14T19:32:21.316Z,4.05
2022-11-14T19:35:13.614Z,4.02
2022-11-14T19:38:02.920Z,3.82
2022-11-14T19:40:51.186Z,3.43
2022-11-14T19:43:38.606Z,3.48
2022-11-14T19:46:27.360Z,3.47
2022-11-14T19:49:14.246Z,3.22
2022-11-14T19:52:03.062Z,3.54
2022-11-14T19:54:51.675Z,3.17
2022-11-14T19:57:38.801Z,3.63
2022-11-14T20:00:26.038Z,3.38
2022-11-14T20:03:13.401Z,3.87
2022-11-14T20:06:00.503Z,4.05
2022-11-14T20:08:49.357Z,3.46
2022-11-14T20:11:36.240Z,3.95
2022-11-14T20:14:23.068Z,2.41
2022-11-14T20:17:09.976Z,2.22
2022-11-14T20:19:56.827Z,2.25
2022-11-14T20:22:45.872Z,2.14
2022-11-14T20:25:36.386Z,2.43
2022-11-14T20:28:23.535Z,2.19
2022-11-14T20:31:13.212Z,2.64
2022-11-14T20:33:59.985Z,2.92
2022-11-14T20:37:09.780Z,3.15
2022-11-14T20:39:54.128Z,2.97
2022-11-14T20:42:42.786Z,4.01
2022-11-14T20:45:29.887Z,3.13
2022-11-14T20:48:16.760Z,3.07
2022-11-14T20:51:04.776Z,3.68
2022-11-14T20:53:53.185Z,3.07
2022-11-14T20:56:40.075Z,2.77
2022-11-14T20:59:28.183Z,2.82
2022-11-14T21:02:15.977Z,2.68
2022-11-14T21:05:03.579Z,1.80
2022-11-14T21:07:50.626Z,1.92
2022-11-14T21:10:47.801Z,1.90
2022-11-14T21:13:53.435Z,2.39
2022-11-14T21:16:42.056Z,2.41
2022-11-14T21:19:29.788Z,2.22
2022-11-14T21:22:17.015Z,1.81
2022-11-14T21:25:04.617Z,2.01
2022-11-14T21:27:51.386Z,2.49
2022-11-14T21:30:38.193Z,2.77
2022-11-14T21:33:26.705Z,2.62
2022-11-14T21:36:43.392Z,3.40
2022-11-14T21:39:25.672Z,2.58
2022-11-14T21:42:18.051Z,2.55
2022-11-14T21:45:06.114Z,2.72
2022-11-14T21:47:53.116Z,2.32
2022-11-14T21:50:41.635Z,2.34
2022-11-14T21:53:29.095Z,2.62
2022-11-14T21:56:17.945Z,2.26
2022-11-14T21:59:16.951Z,2.20
2022-11-14T22:02:21.724Z,2.36
2022-11-14T22:05:09.222Z,2.18
2022-11-14T22:07:57.798Z,2.17
2022-11-14T22:10:44.880Z,2.07
2022-11-14T22:13:32.679Z,2.62
2022-11-14T22:16:20.868Z,2.62
2022-11-14T22:19:08.073Z,2.29
2022-11-14T22:21:55.303Z,3.03
2022-11-14T22:24:43.954Z,2.72
2022-11-14T22:27:30.796Z,2.73
2022-11-14T22:30:17.765Z,3.04
2022-11-14T22:33:04.836Z,3.40
2022-11-14T22:35:51.952Z,2.92
2022-11-14T22:38:39.390Z,3.02
2022-11-14T22:41:32.192Z,2.24
2022-11-14T22:44:19.919Z,2.47
2022-11-14T22:47:07.036Z,2.17
2022-11-14T22:49:53.727Z,2.43
2022-11-14T22:52:40.436Z,2.27
2022-11-14T22:55:27.284Z,2.84
2022-11-14T22:58:15.362Z,2.84
2022-11-14T23:01:02.587Z,2.65
2022-11-14T23:03:52.148Z,3.79
2022-11-14T23:06:39.200Z,2.29
2022-11-14T23:09:27.239Z,2.84
2022-11-14T23:12:14.107Z,2.63
2022-11-14T23:15:02.430Z,3.02
2022-11-14T23:17:49.528Z,2.84
2022-11-14T23:20:37.122Z,2.96
2022-11-14T23:23:23.860Z,2.60
2022-11-14T23:26:11.687Z,1.84
2022-11-14T23:28:58.581Z,2.70
2022-11-14T23:31:46.828Z,3.17
2022-11-14T23:34:33.838Z,3.13
2022-11-14T23:37:20.922Z,3.70
2022-11-14T23:40:09.068Z,3.43
2022-11-14T23:42:55.942Z,3.29
2022-11-14T23:45:43.671Z,3.04
2022-11-14T23:48:32.180Z,3.68
2022-11-14T23:51:19.325Z,2.78
2022-11-14T23:54:06.197Z,3.14
2022-11-14T23:56:53.167Z,3.70
2022-11-14T23:59:40.145Z,2.25
